createdAt,value
2018-12-14T00:01:27.681Z,2.00
2018-12-14T00:03:55.841Z,1.90
2018-12-14T00:06:23.957Z,1.90
2018-12-14T00:08:52.194Z,2.00
2018-12-14T00:11:20.313Z,2.00
2018-12-14T00:13:48.476Z,2.10
2018-12-14T00:16:16.637Z,2.10
2018-12-14T00:18:44.739Z,2.10
2018-12-14T00:21:12.873Z,2.10
2018-12-14T00:23:41.013Z,2.10
2018-12-14T00:26:09.236Z,2.10
2018-12-14T00:28:37.371Z,2.00
2018-12-14T00:31:05.577Z,2.00
2018-12-14T00:33:33.723Z,2.00
2018-12-14T00:36:01.838Z,2.00
2018-12-14T00:38:30.055Z,1.90
2018-12-14T00:40:58.170Z,1.90
2018-12-14T00:43:26.325Z,1.90
2018-12-14T00:45:54.434Z,1.90
2018-12-14T00:48:22.565Z,1.90
2018-12-14T00:50:50.720Z,1.90
2018-12-14T00:53:18.881Z,2.00
2018-12-14T00:55:46.993Z,2.10
2018-12-14T00:58:15.102Z,2.00
2018-12-14T01:00:43.269Z,1.90
2018-12-14T01:03:11.387Z,1.90
2018-12-14T01:05:39.513Z,1.90
2018-12-14T01:08:07.629Z,1.90
2018-12-14T01:10:35.762Z,1.90
2018-12-14T01:13:03.918Z,1.90
2018-12-14T01:15:32.086Z,1.90
2018-12-14T01:18:00.225Z,1.90
2018-12-14T01:20:28.366Z,1.90
2018-12-14T01:22:56.528Z,1.90
2018-12-14T01:25:24.646Z,1.90
2018-12-14T01:27:52.768Z,1.90
2018-12-14T01:30:20.925Z,1.90
2018-12-14T01:32:49.070Z,1.90
2018-12-14T01:35:17.225Z,1.90
2018-12-14T01:37:45.342Z,1.90
2018-12-14T01:40:13.595Z,2.00
2018-12-14T01:42:41.730Z,1.90
2018-12-14T01:45:09.834Z,1.90
2018-12-14T01:47:38.022Z,1.90
2018-12-14T01:50:06.414Z,1.90
2018-12-14T01:52:34.789Z,1.90
2018-12-14T01:55:03.015Z,1.90
2018-12-14T01:57:31.205Z,1.80
2018-12-14T01:59:59.342Z,1.90
2018-12-14T02:02:27.481Z,1.80
2018-12-14T02:04:55.626Z,1.80
2018-12-14T02:07:23.767Z,1.80
2018-12-14T02:09:51.909Z,1.80
2018-12-14T02:12:20.042Z,1.70
2018-12-14T02:14:48.187Z,1.70
2018-12-14T02:17:16.314Z,1.70
2018-12-14T02:19:44.545Z,1.70
2018-12-14T02:22:12.681Z,1.60
2018-12-14T02:24:40.823Z,1.60
2018-12-14T02:27:08.934Z,1.60
2018-12-14T02:29:37.097Z,1.50
2018-12-14T02:32:05.601Z,1.50
2018-12-14T02:34:33.718Z,1.50
2018-12-14T02:37:01.853Z,1.50
2018-12-14T02:39:29.985Z,1.50
2018-12-14T02:41:58.100Z,1.40
2018-12-14T02:44:26.242Z,1.40
2018-12-14T02:46:54.382Z,1.40
2018-12-14T02:49:22.498Z,1.40
2018-12-14T02:51:50.685Z,1.40
2018-12-14T02:54:18.866Z,1.40
2018-12-14T02:56:47.011Z,1.40
2018-12-14T02:59:15.251Z,1.40
2018-12-14T03:01:43.393Z,1.40
2018-12-14T03:04:11.498Z,1.40
2018-12-14T03:06:39.649Z,1.40
2018-12-14T03:09:07.974Z,1.40
2018-12-14T03:11:36.111Z,1.40
2018-12-14T03:14:04.458Z,1.40
2018-12-14T03:16:32.564Z,1.40
2018-12-14T03:19:00.671Z,1.50
2018-12-14T03:21:28.810Z,1.50
2018-12-14T03:23:56.979Z,1.40
2018-12-14T03:26:25.102Z,1.40
2018-12-14T03:28:53.209Z,1.40
2018-12-14T03:31:21.348Z,1.40
2018-12-14T03:33:49.465Z,1.40
2018-12-14T03:36:17.699Z,1.40
2018-12-14T03:38:45.806Z,1.40
2018-12-14T03:41:13.968Z,1.40
2018-12-14T03:43:42.107Z,1.40
2018-12-14T03:46:10.227Z,1.30
2018-12-14T03:48:38.474Z,1.30
2018-12-14T03:51:06.678Z,1.30
2018-12-14T03:53:34.793Z,1.30
2018-12-14T03:56:02.930Z,1.30
2018-12-14T03:58:31.038Z,1.30
2018-12-14T04:00:59.165Z,1.20
2018-12-14T04:03:27.336Z,1.30
2018-12-14T04:05:55.478Z,1.20
2018-12-14T04:08:23.585Z,1.30
2018-12-14T04:10:51.718Z,1.30
2018-12-14T04:13:19.858Z,1.30
2018-12-14T04:15:48.006Z,1.30
2018-12-14T04:18:16.134Z,1.30
2018-12-14T04:20:44.243Z,1.30
2018-12-14T04:23:12.365Z,1.30
2018-12-14T04:25:40.492Z,1.30
2018-12-14T04:28:08.606Z,1.30
2018-12-14T04:30:36.776Z,1.30
2018-12-14T04:33:04.922Z,1.30
2018-12-14T04:35:33.057Z,1.40
2018-12-14T04:38:01.201Z,1.40
2018-12-14T04:40:29.354Z,1.40
2018-12-14T04:42:57.515Z,1.30
2018-12-14T04:45:25.637Z,1.40
2018-12-14T04:47:53.741Z,1.30
2018-12-14T04:50:21.875Z,1.30
2018-12-14T04:52:49.991Z,1.40
2018-12-14T04:55:18.226Z,1.40
2018-12-14T04:57:46.342Z,1.40
2018-12-14T05:00:14.650Z,1.40
2018-12-14T05:02:42.777Z,1.40
2018-12-14T05:05:10.893Z,1.40
2018-12-14T05:07:39.073Z,1.40
2018-12-14T05:10:07.273Z,1.30
2018-12-14T05:12:35.425Z,1.30
2018-12-14T05:15:04.506Z,1.30
2018-12-14T05:17:32.622Z,1.30
2018-12-14T05:20:00.733Z,1.30
2018-12-14T05:22:28.865Z,1.30
2018-12-14T05:24:57.053Z,1.30
2018-12-14T05:27:25.365Z,1.40
2018-12-14T05:29:53.899Z,1.30
2018-12-14T05:32:22.040Z,1.30
2018-12-14T05:34:50.143Z,1.30
2018-12-14T05:37:18.373Z,1.30
2018-12-14T05:39:46.514Z,1.30
2018-12-14T05:42:14.624Z,1.20
2018-12-14T05:44:42.789Z,1.20
2018-12-14T05:47:11.012Z,1.30
2018-12-14T05:49:39.121Z,1.20
2018-12-14T05:52:07.229Z,1.20
2018-12-14T05:54:35.394Z,1.10
2018-12-14T05:57:03.501Z,1.00
2018-12-14T05:59:31.637Z,1.00
2018-12-14T06:01:59.862Z,0.90
2018-12-14T06:04:27.978Z,0.90
2018-12-14T06:06:56.271Z,0.80
2018-12-14T06:09:24.408Z,0.80
2018-12-14T06:11:52.544Z,0.90
2018-12-14T06:14:20.684Z,0.90
2018-12-14T06:16:48.817Z,0.90
2018-12-14T06:19:16.959Z,1.00
2018-12-14T06:21:45.106Z,1.00
2018-12-14T06:24:13.268Z,1.00
2018-12-14T06:26:41.385Z,1.00
2018-12-14T06:29:09.528Z,1.00
2018-12-14T06:31:37.628Z,1.00
2018-12-14T06:34:05.761Z,1.00
2018-12-14T06:36:33.873Z,1.00
2018-12-14T06:39:02.011Z,1.00
2018-12-14T06:41:30.121Z,0.90
2018-12-14T06:43:58.285Z,0.90
2018-12-14T06:46:26.401Z,0.90
2018-12-14T06:48:54.509Z,0.90
2018-12-14T06:51:22.670Z,0.80
2018-12-14T06:53:50.879Z,0.80
2018-12-14T06:56:19.047Z,0.80
2018-12-14T06:58:47.181Z,0.70
2018-12-14T07:01:15.345Z,0.70
2018-12-14T07:03:43.466Z,0.60
2018-12-14T07:06:11.608Z,0.60
2018-12-14T07:08:39.885Z,0.50
2018-12-14T07:11:08.025Z,0.50
2018-12-14T07:13:36.178Z,0.50
2018-12-14T07:16:04.290Z,0.40
2018-12-14T07:18:32.447Z,0.40
2018-12-14T07:21:00.580Z,0.40
2018-12-14T07:23:28.760Z,0.40
2018-12-14T07:25:57.003Z,0.40
2018-12-14T07:28:25.153Z,0.40
2018-12-14T07:30:53.284Z,0.40
2018-12-14T07:33:21.414Z,0.50
2018-12-14T07:35:49.554Z,0.50
2018-12-14T07:38:17.685Z,0.60
2018-12-14T07:40:45.795Z,0.60
2018-12-14T07:43:13.924Z,0.70
2018-12-14T07:45:42.043Z,0.70
2018-12-14T07:48:10.173Z,0.70
2018-12-14T07:50:38.329Z,0.80
2018-12-14T07:53:09.218Z,0.80
2018-12-14T07:55:36.680Z,0.80
2018-12-14T07:58:04.810Z,0.80
2018-12-14T08:00:32.980Z,0.90
2018-12-14T08:03:01.097Z,0.90
2018-12-14T08:05:29.255Z,0.90
2018-12-14T08:07:57.494Z,0.90
2018-12-14T08:10:25.945Z,0.90
2018-12-14T08:12:54.713Z,1.00
2018-12-14T08:15:23.221Z,0.90
2018-12-14T08:17:51.354Z,0.90
2018-12-14T08:20:19.565Z,0.90
2018-12-14T08:22:47.722Z,0.90
2018-12-14T08:25:15.834Z,0.90
2018-12-14T08:27:43.941Z,0.90
2018-12-14T08:30:12.074Z,0.90
2018-12-14T08:32:40.210Z,1.00
2018-12-14T08:35:08.346Z,1.00
2018-12-14T08:37:36.481Z,1.00
2018-12-14T08:40:06.181Z,1.10
2018-12-14T08:42:34.321Z,1.10
2018-12-14T08:45:02.546Z,1.20
2018-12-14T08:47:30.716Z,1.20
2018-12-14T08:49:58.864Z,1.40
2018-12-14T08:52:27.017Z,1.40
2018-12-14T08:54:55.145Z,1.50
2018-12-14T08:57:23.301Z,1.60
2018-12-14T08:59:51.454Z,1.70
2018-12-14T09:02:19.617Z,1.70
2018-12-14T09:04:47.729Z,1.80
2018-12-14T09:07:16.137Z,1.90
2018-12-14T09:09:44.293Z,2.00
2018-12-14T09:12:12.437Z,2.00
2018-12-14T09:14:40.674Z,2.00
2018-12-14T09:17:08.788Z,2.10
2018-12-14T09:19:36.927Z,2.20
2018-12-14T09:22:05.056Z,2.40
2018-12-14T09:24:33.234Z,2.50
2018-12-14T09:27:01.357Z,2.50
2018-12-14T09:29:29.493Z,2.60
2018-12-14T09:31:57.825Z,2.70
2018-12-14T09:34:25.937Z,2.70
2018-12-14T09:36:54.073Z,2.70
2018-12-14T09:39:22.206Z,2.60
2018-12-14T09:41:50.332Z,2.50
2018-12-14T09:44:18.446Z,2.50
2018-12-14T09:46:47.265Z,2.40
2018-12-14T09:49:16.028Z,2.30
2018-12-14T09:51:49.581Z,2.20
2018-12-14T09:54:17.739Z,2.10
2018-12-14T09:56:45.859Z,2.10
2018-12-14T09:59:14.060Z,2.00
2018-12-14T10:01:42.164Z,2.00
2018-12-14T10:04:10.282Z,2.10
2018-12-14T10:06:38.415Z,2.10
2018-12-14T10:09:06.663Z,2.10
2018-12-14T10:11:37.005Z,2.10
2018-12-14T10:14:05.188Z,2.10
2018-12-14T10:16:33.385Z,2.20
2018-12-14T10:19:01.790Z,2.30
2018-12-14T10:21:29.944Z,2.40
2018-12-14T10:23:58.045Z,2.50
2018-12-14T10:26:26.200Z,2.50
2018-12-14T10:28:54.361Z,2.60
2018-12-14T10:31:22.517Z,2.70
2018-12-14T10:33:50.622Z,2.60
2018-12-14T10:36:18.774Z,2.70
2018-12-14T10:38:46.918Z,2.90
2018-12-14T10:41:15.055Z,3.10
2018-12-14T10:43:43.189Z,3.20
2018-12-14T10:46:11.354Z,3.30
2018-12-14T10:48:39.466Z,3.50
2018-12-14T10:51:07.588Z,3.40
2018-12-14T10:53:35.849Z,3.50
2018-12-14T10:56:03.960Z,3.70
2018-12-14T10:58:32.108Z,3.80
2018-12-14T11:01:06.029Z,3.80
2018-12-14T11:03:34.165Z,3.80
2018-12-14T11:06:02.280Z,3.90
2018-12-14T11:08:30.409Z,4.00
2018-12-14T11:10:58.521Z,4.00
2018-12-14T11:13:26.693Z,4.20
2018-12-14T11:15:54.805Z,4.20
2018-12-14T11:18:22.923Z,4.30
2018-12-14T11:20:51.255Z,4.40
2018-12-14T11:23:19.385Z,4.10
2018-12-14T11:25:47.502Z,3.70
2018-12-14T11:28:15.704Z,3.60
2018-12-14T11:30:43.814Z,3.50
2018-12-14T11:33:12.877Z,3.50
2018-12-14T11:35:41.013Z,3.40
2018-12-14T11:38:09.166Z,3.40
2018-12-14T11:40:37.305Z,3.30
2018-12-14T11:43:05.475Z,3.30
2018-12-14T11:45:33.586Z,3.30
2018-12-14T11:48:01.686Z,3.20
2018-12-14T11:50:29.851Z,3.10
2018-12-14T11:52:57.946Z,3.10
2018-12-14T11:55:26.221Z,3.00
2018-12-14T11:57:54.327Z,3.00
2018-12-14T12:00:22.539Z,3.00
2018-12-14T12:02:50.675Z,3.10
2018-12-14T12:05:18.834Z,3.10
2018-12-14T12:07:47.171Z,3.10
2018-12-14T12:10:15.334Z,3.10
2018-12-14T12:12:43.450Z,3.00
2018-12-14T12:15:11.692Z,2.90
2018-12-14T12:17:40.489Z,2.90
2018-12-14T12:20:08.708Z,2.90
2018-12-14T12:22:36.848Z,2.90
2018-12-14T12:25:05.063Z,2.90
2018-12-14T12:27:33.198Z,2.80
2018-12-14T12:30:01.295Z,2.90
2018-12-14T12:32:29.520Z,2.80
2018-12-14T12:34:57.636Z,2.70
2018-12-14T12:37:25.742Z,2.60
2018-12-14T12:39:53.896Z,2.70
2018-12-14T12:42:22.054Z,2.70
2018-12-14T12:44:50.297Z,2.80
2018-12-14T12:47:18.401Z,2.80
2018-12-14T12:49:46.562Z,2.70
2018-12-14T12:52:14.721Z,2.60
2018-12-14T12:54:42.877Z,2.80
2018-12-14T12:57:11.015Z,2.80
2018-12-14T12:59:39.226Z,2.90
2018-12-14T13:02:07.385Z,2.80
2018-12-14T13:04:35.692Z,2.90
2018-12-14T13:07:03.922Z,2.90
2018-12-14T13:09:32.040Z,2.90
2018-12-14T13:12:00.192Z,2.80
2018-12-14T13:14:28.353Z,2.70
2018-12-14T13:16:57.472Z,2.60
2018-12-14T13:19:25.654Z,2.60
2018-12-14T13:21:53.769Z,2.50
2018-12-14T13:24:21.901Z,2.60
2018-12-14T13:26:50.026Z,2.60
2018-12-14T13:29:18.181Z,2.60
2018-12-14T13:31:46.284Z,2.60
2018-12-14T13:34:14.525Z,2.70
2018-12-14T13:36:42.761Z,2.70
2018-12-14T13:39:10.932Z,2.60
2018-12-14T13:41:39.184Z,2.50
2018-12-14T13:44:07.328Z,2.40
2018-12-14T13:46:35.438Z,2.50
2018-12-14T13:49:03.634Z,2.50
2018-12-14T13:51:31.866Z,2.60
2018-12-14T13:53:59.978Z,2.60
2018-12-14T13:56:28.110Z,2.50
2018-12-14T13:58:56.282Z,2.40
2018-12-14T14:01:24.830Z,2.40
2018-12-14T14:03:52.964Z,2.30
2018-12-14T14:06:21.111Z,2.30
2018-12-14T14:08:52.263Z,2.30
2018-12-14T14:11:20.370Z,2.20
2018-12-14T14:13:48.485Z,2.20
2018-12-14T14:16:16.758Z,2.10
2018-12-14T14:18:44.925Z,2.10
2018-12-14T14:21:13.055Z,2.10
2018-12-14T14:23:41.166Z,2.10
2018-12-14T14:26:09.730Z,2.10
2018-12-14T14:28:37.848Z,2.10
2018-12-14T14:31:06.014Z,2.10
2018-12-14T14:33:34.125Z,2.10
2018-12-14T14:36:02.402Z,2.00
2018-12-14T14:38:30.585Z,2.00
2018-12-14T14:40:58.741Z,2.00
2018-12-14T14:43:26.906Z,2.00
2018-12-14T14:45:55.041Z,1.90
2018-12-14T14:48:23.169Z,1.90
2018-12-14T14:50:51.326Z,1.90
2018-12-14T14:53:19.473Z,1.90
2018-12-14T14:55:47.588Z,1.90
2018-12-14T14:58:15.820Z,1.80
2018-12-14T15:00:44.077Z,1.80
2018-12-14T15:03:12.353Z,1.80
2018-12-14T15:05:40.526Z,1.70
2018-12-14T15:08:08.772Z,1.70
2018-12-14T15:10:36.887Z,1.70
2018-12-14T15:13:05.029Z,1.70
2018-12-14T15:15:33.273Z,1.70
2018-12-14T15:18:01.410Z,1.70
2018-12-14T15:20:29.599Z,1.70
2018-12-14T15:22:57.765Z,1.60
2018-12-14T15:25:25.906Z,1.60
2018-12-14T15:27:54.054Z,1.60
2018-12-14T15:30:22.165Z,1.70
2018-12-14T15:32:50.318Z,1.70
2018-12-14T15:35:18.474Z,1.70
2018-12-14T15:37:46.664Z,1.70
2018-12-14T15:40:14.787Z,1.70
2018-12-14T15:42:42.910Z,1.70
2018-12-14T15:45:13.210Z,1.70
2018-12-14T15:47:41.201Z,1.60
2018-12-14T15:50:09.454Z,1.60
2018-12-14T15:52:37.590Z,1.60
2018-12-14T15:55:05.972Z,1.60
2018-12-14T15:57:34.126Z,1.60
2018-12-14T16:00:02.248Z,1.60
2018-12-14T16:02:30.382Z,1.60
2018-12-14T16:04:58.521Z,1.60
2018-12-14T16:07:27.833Z,1.60
2018-12-14T16:09:55.947Z,1.60
2018-12-14T16:12:24.217Z,1.60
2018-12-14T16:14:52.342Z,1.60
2018-12-14T16:17:20.494Z,1.60
2018-12-14T16:19:48.665Z,1.50
2018-12-14T16:22:16.852Z,1.40
2018-12-14T16:24:44.975Z,1.40
2018-12-14T16:27:13.145Z,1.30
2018-12-14T16:29:41.257Z,1.20
2018-12-14T16:32:09.727Z,1.20
2018-12-14T16:34:38.753Z,1.20
2018-12-14T16:37:06.888Z,1.10
2018-12-14T16:39:35.126Z,1.10
2018-12-14T16:42:04.045Z,1.10
2018-12-14T16:44:32.151Z,1.10
2018-12-14T16:47:00.273Z,1.10
2018-12-14T16:49:28.429Z,1.10
2018-12-14T16:51:56.541Z,1.10
2018-12-14T16:54:24.701Z,1.10
2018-12-14T16:56:52.812Z,1.10
2018-12-14T16:59:20.979Z,1.10
2018-12-14T17:01:49.092Z,1.10
2018-12-14T17:04:17.228Z,1.00
2018-12-14T17:06:45.478Z,1.00
2018-12-14T17:09:13.647Z,1.00
2018-12-14T17:11:41.885Z,1.00
2018-12-14T17:14:10.051Z,1.00
2018-12-14T17:16:38.166Z,1.00
2018-12-14T17:19:06.284Z,1.00
2018-12-14T17:21:34.422Z,1.00
2018-12-14T17:24:02.554Z,1.00
2018-12-14T17:26:30.771Z,1.00
2018-12-14T17:28:58.886Z,0.90
2018-12-14T17:31:26.994Z,1.00
2018-12-14T17:33:55.159Z,1.00
2018-12-14T17:36:23.302Z,1.00
2018-12-14T17:38:51.441Z,1.00
2018-12-14T17:41:19.577Z,1.10
2018-12-14T17:43:47.745Z,1.00
2018-12-14T17:46:15.859Z,1.00
2018-12-14T17:48:44.048Z,1.00
2018-12-14T17:51:12.213Z,1.10
2018-12-14T17:53:40.360Z,1.10
2018-12-14T17:56:08.510Z,1.10
2018-12-14T17:58:36.674Z,1.10
2018-12-14T18:01:04.791Z,1.10
2018-12-14T18:03:32.967Z,1.20
2018-12-14T18:06:01.086Z,1.20
2018-12-14T18:08:29.218Z,1.10
2018-12-14T18:10:57.410Z,1.10
2018-12-14T18:13:25.549Z,1.10
2018-12-14T18:15:53.663Z,1.10
2018-12-14T18:18:21.793Z,1.10
2018-12-14T18:20:49.935Z,1.10
2018-12-14T18:23:18.047Z,1.10
2018-12-14T18:25:46.182Z,1.10
2018-12-14T18:28:14.388Z,1.10
2018-12-14T18:30:42.538Z,1.00
2018-12-14T18:33:10.821Z,1.00
2018-12-14T18:35:38.938Z,1.00
2018-12-14T18:38:07.097Z,1.00
2018-12-14T18:40:35.245Z,1.00
2018-12-14T18:43:03.430Z,1.00
2018-12-14T18:45:31.575Z,1.00
2018-12-14T18:47:59.713Z,0.90
2018-12-14T18:50:27.853Z,1.00
2018-12-14T18:52:55.986Z,1.00
2018-12-14T18:55:24.111Z,1.00
2018-12-14T18:57:52.245Z,1.00
2018-12-14T19:00:20.445Z,1.00
2018-12-14T19:02:48.553Z,0.90
2018-12-14T19:05:16.694Z,0.90
2018-12-14T19:07:44.826Z,0.80
2018-12-14T19:10:12.970Z,0.80
2018-12-14T19:12:41.211Z,0.80
2018-12-14T19:15:09.345Z,0.80
2018-12-14T19:17:37.477Z,0.80
2018-12-14T19:20:05.832Z,0.70
2018-12-14T19:22:33.946Z,0.70
2018-12-14T19:25:02.087Z,0.70
2018-12-14T19:27:30.226Z,0.70
2018-12-14T19:29:58.370Z,0.70
2018-12-14T19:32:26.554Z,0.70
2018-12-14T19:34:54.685Z,0.70
2018-12-14T19:37:22.855Z,0.70
2018-12-14T19:39:50.970Z,0.70
2018-12-14T19:42:19.083Z,0.60
2018-12-14T19:44:47.212Z,0.60
2018-12-14T19:47:15.445Z,0.60
2018-12-14T19:49:43.771Z,0.60
2018-12-14T19:52:12.187Z,0.60
2018-12-14T19:54:40.523Z,0.60
2018-12-14T19:57:13.204Z,0.60
2018-12-14T19:59:41.341Z,0.60
2018-12-14T20:02:09.528Z,0.50
2018-12-14T20:04:37.662Z,0.50
2018-12-14T20:07:05.785Z,0.50
2018-12-14T20:09:33.973Z,0.50
2018-12-14T20:12:04.571Z,0.40
2018-12-14T20:14:35.612Z,0.50
2018-12-14T20:17:05.335Z,0.40
2018-12-14T20:19:33.971Z,0.50
2018-12-14T20:22:05.227Z,0.40
2018-12-14T20:24:33.364Z,0.50
2018-12-14T20:27:01.478Z,0.50
2018-12-14T20:29:29.709Z,0.50
2018-12-14T20:31:57.828Z,0.50
2018-12-14T20:34:25.965Z,0.50
2018-12-14T20:36:54.146Z,0.40
2018-12-14T20:39:24.180Z,0.40
2018-12-14T20:41:52.805Z,0.50
2018-12-14T20:44:20.956Z,0.40
2018-12-14T20:46:49.112Z,0.40
2018-12-14T20:49:17.256Z,0.40
2018-12-14T20:51:45.399Z,0.40
2018-12-14T20:54:13.578Z,0.40
2018-12-14T20:56:41.727Z,0.40
2018-12-14T20:59:09.868Z,0.40
2018-12-14T21:01:37.996Z,0.40
2018-12-14T21:04:06.158Z,0.40
2018-12-14T21:06:34.327Z,0.40
2018-12-14T21:09:02.444Z,0.40
2018-12-14T21:11:30.583Z,0.50
2018-12-14T21:13:58.768Z,0.40
2018-12-14T21:16:26.898Z,0.40
2018-12-14T21:18:55.058Z,0.40
2018-12-14T21:21:23.190Z,0.30
2018-12-14T21:23:51.446Z,0.30
2018-12-14T21:26:19.548Z,0.30
2018-12-14T21:28:47.663Z,0.30
2018-12-14T21:31:15.897Z,0.30
2018-12-14T21:33:44.030Z,0.30
2018-12-14T21:36:12.153Z,0.40
2018-12-14T21:38:40.368Z,0.30
2018-12-14T21:41:08.506Z,0.40
2018-12-14T21:43:36.615Z,0.40
2018-12-14T21:46:04.754Z,0.40
2018-12-14T21:48:32.899Z,0.30
2018-12-14T21:51:01.038Z,0.40
2018-12-14T21:53:29.185Z,0.30
2018-12-14T21:55:57.318Z,0.30
2018-12-14T21:58:25.465Z,0.30
2018-12-14T22:00:53.604Z,0.30
2018-12-14T22:03:21.770Z,0.40
2018-12-14T22:05:49.913Z,0.40
2018-12-14T22:08:18.076Z,0.40
2018-12-14T22:10:46.218Z,0.40
2018-12-14T22:13:14.354Z,0.40
2018-12-14T22:15:42.489Z,0.40
2018-12-14T22:18:10.679Z,0.40
2018-12-14T22:20:38.832Z,0.40
2018-12-14T22:23:06.962Z,0.40
2018-12-14T22:25:35.134Z,0.30
2018-12-14T22:28:03.316Z,0.40
2018-12-14T22:30:31.474Z,0.40
2018-12-14T22:32:59.613Z,0.40
2018-12-14T22:35:27.774Z,0.40
2018-12-14T22:37:55.891Z,0.40
2018-12-14T22:40:24.124Z,0.30
2018-12-14T22:42:52.305Z,0.30
2018-12-14T22:45:20.464Z,0.30
2018-12-14T22:47:48.575Z,0.40
2018-12-14T22:50:16.849Z,0.40
2018-12-14T22:52:45.107Z,0.40
2018-12-14T22:55:13.218Z,0.30
2018-12-14T22:57:41.355Z,0.40
2018-12-14T23:00:11.929Z,0.40
2018-12-14T23:02:40.055Z,0.40
2018-12-14T23:05:08.164Z,0.40
2018-12-14T23:07:36.304Z,0.40
2018-12-14T23:10:05.340Z,0.30
2018-12-14T23:12:33.579Z,0.40
2018-12-14T23:15:01.718Z,0.30
2018-12-14T23:17:29.822Z,0.30
2018-12-14T23:19:57.989Z,0.30
2018-12-14T23:22:26.103Z,0.30
2018-12-14T23:24:54.268Z,0.30
2018-12-14T23:27:22.378Z,0.40
2018-12-14T23:29:50.514Z,0.30
2018-12-14T23:32:18.638Z,0.40
2018-12-14T23:34:46.800Z,0.40
2018-12-14T23:37:14.936Z,0.40
2018-12-14T23:39:43.080Z,0.40
2018-12-14T23:42:11.314Z,0.40
2018-12-14T23:44:39.456Z,0.40
2018-12-14T23:47:07.601Z,0.40
2018-12-14T23:49:35.713Z,0.40
2018-12-14T23:52:03.878Z,0.40
2018-12-14T23:54:31.998Z,0.40
2018-12-14T23:57:00.177Z,0.40
2018-12-14T23:59:28.289Z,0.40
